Time;durP1;ratioP1;P1;durP2;ratioP2;P2;SDS_P1;SDS_P2;PMS_P1;PMS_P2;Temp;Humidity;BMP_temperature;BMP_pressure;BME280_temperature;BME280_humidity;BME280_pressure;Samples;Min_cycle;Max_cycle;Signal;HPM_P1;HPM_P2
2023/07/01 00:00:04;;;;;;;37.35;22.67;;;;;;;16.11;100.00;95487.44;1047337;28;20025;-78
2023/07/01 00:00:35;;;;;;;42.55;24.25;;;;;;;16.08;100.00;95488.03;1047675;28;20028;-78
2023/07/01 00:01:05;;;;;;;40.97;22.98;;;;;;;16.06;100.00;95490.97;1038752;28;20021;-77
2023/07/01 00:01:35;;;;;;;39.60;22.73;;;;;;;16.04;100.00;95490.50;1039140;28;20104;-75
2023/07/01 00:02:06;;;;;;;39.42;23.10;;;;;;;15.90;100.00;95472.06;1038658;28;20029;-75
2023/07/01 00:02:37;;;;;;;45.65;22.25;;;;;;;16.05;100.00;95488.63;1034648;28;20407;-77
2023/07/01 00:03:07;;;;;;;41.70;22.42;;;;;;;16.07;100.00;95491.78;1036179;28;20538;-77
2023/07/01 00:03:38;;;;;;;39.42;22.65;;;;;;;16.01;100.00;95485.81;1039340;28;20022;-78
2023/07/01 00:04:08;;;;;;;38.35;21.70;;;;;;;15.92;100.00;95479.69;1039510;28;20024;-77
2023/07/01 00:04:40;;;;;;;40.00;23.42;;;;;;;15.98;100.00;95486.41;1039222;28;20772;-77
2023/07/01 00:05:11;;;;;;;36.88;21.52;;;;;;;15.93;100.00;95483.91;1035279;28;20116;-77
2023/07/01 00:05:41;;;;;;;39.60;21.92;;;;;;;15.92;100.00;95480.47;1030995;28;20030;-77
2023/07/01 00:06:12;;;;;;;34.80;20.92;;;;;;;15.90;100.00;95492.44;1037429;28;20530;-76
2023/07/01 00:06:42;;;;;;;36.58;20.55;;;;;;;15.87;100.00;95493.06;1043784;28;20028;-77
2023/07/01 00:07:13;;;;;;;38.72;22.23;;;;;;;15.86;100.00;95499.41;1041867;28;20056;-78
2023/07/01 00:07:43;;;;;;;37.20;20.45;;;;;;;15.85;100.00;95496.00;1044539;28;20033;-76
2023/07/01 00:08:14;;;;;;;33.17;19.83;;;;;;;15.73;100.00;95490.47;1045667;28;20459;-78
2023/07/01 00:08:44;;;;;;;30.92;18.10;;;;;;;15.73;100.00;95498.41;1047659;28;20039;-76
2023/07/01 00:09:15;;;;;;;38.42;20.05;;;;;;;15.73;100.00;95493.91;1047655;28;20025;-78
2023/07/01 00:09:45;;;;;;;37.63;21.15;;;;;;;15.75;100.00;95491.72;1043286;28;20028;-78
2023/07/01 00:10:16;;;;;;;32.67;19.23;;;;;;;15.65;100.00;95491.94;1038877;28;20036;-77
2023/07/01 00:10:46;;;;;;;34.15;19.70;;;;;;;15.51;100.00;95472.69;1035170;28;20455;-78
2023/07/01 00:11:16;;;;;;;35.08;20.27;;;;;;;15.64;100.00;95490.38;1044502;28;20052;-78
2023/07/01 00:11:47;;;;;;;33.17;19.85;;;;;;;15.70;100.00;95499.00;1042127;28;20033;-78
2023/07/01 00:12:17;;;;;;;34.35;19.48;;;;;;;15.66;100.00;95498.84;1035342;28;20057;-77
2023/07/01 00:12:48;;;;;;;32.38;19.05;;;;;;;15.66;100.00;95500.63;1032117;28;20244;-78
2023/07/01 00:13:18;;;;;;;33.08;19.35;;;;;;;15.49;100.00;95483.59;1039429;28;20076;-77
2023/07/01 00:13:49;;;;;;;29.55;17.92;;;;;;;15.46;100.00;95494.75;1047773;28;20032;-77
2023/07/01 00:14:19;;;;;;;32.05;18.80;;;;;;;15.49;100.00;95501.28;1039407;28;20021;-78
2023/07/01 00:14:50;;;;;;;30.05;18.35;;;;;;;15.47;100.00;95506.13;1043149;28;20104;-77
2023/07/01 00:15:20;;;;;;;30.67;18.13;;;;;;;15.41;100.00;95488.78;1039006;28;20096;-76
2023/07/01 00:15:51;;;;;;;32.22;17.50;;;;;;;15.37;100.00;95496.53;1037870;28;20047;-78
2023/07/01 00:16:21;;;;;;;30.17;17.05;;;;;;;15.32;100.00;95492.16;1039367;28;20029;-77
2023/07/01 00:16:52;;;;;;;29.73;16.85;;;;;;;15.31;100.00;95503.03;1037997;28;20030;-78
2023/07/01 00:17:22;;;;;;;29.42;17.27;;;;;;;15.23;100.00;95493.94;1035082;28;20589;-77
2023/07/01 00:17:54;;;;;;;30.75;17.17;;;;;;;15.22;100.00;95499.50;1043595;28;20029;-77
2023/07/01 00:18:25;;;;;;;30.45;17.13;;;;;;;15.09;100.00;95480.00;1038602;28;20045;-77
2023/07/01 00:18:55;;;;;;;33.03;18.38;;;;;;;15.18;100.00;95499.31;1035121;28;20073;-77
2023/07/01 00:19:26;;;;;;;32.65;17.67;;;;;;;15.20;100.00;95502.47;1038187;28;20025;-76
2023/07/01 00:19:56;;;;;;;28.48;16.98;;;;;;;15.14;100.00;95503.66;1039146;28;20026;-76
2023/07/01 00:20:27;;;;;;;26.73;16.88;;;;;;;15.10;100.00;95492.13;1047499;28;20139;-76
2023/07/01 00:20:57;;;;;;;33.88;17.15;;;;;;;15.08;100.00;95504.84;1038367;28;20041;-76
2023/07/01 00:21:27;;;;;;;31.15;17.92;;;;;;;15.07;100.00;95506.69;1034345;28;20574;-77
2023/07/01 00:21:58;;;;;;;30.60;17.83;;;;;;;15.02;100.00;95511.28;1038849;28;20029;-76
2023/07/01 00:22:28;;;;;;;30.05;18.05;;;;;;;14.95;100.00;95500.34;1042943;28;20033;-76
2023/07/01 00:22:59;;;;;;;31.17;18.17;;;;;;;14.91;100.00;95499.38;1042835;28;20032;-76
2023/07/01 00:23:29;;;;;;;30.67;17.90;;;;;;;14.99;100.00;95501.31;1043800;28;20557;-76
2023/07/01 00:24:00;;;;;;;31.20;17.92;;;;;;;14.90;100.00;95498.59;1046261;28;20159;-76
2023/07/01 00:24:30;;;;;;;32.00;17.33;;;;;;;14.82;100.00;95494.00;1039046;28;20087;-77
2023/07/01 00:25:01;;;;;;;31.67;16.25;;;;;;;14.85;100.00;95504.78;1038957;28;20029;-77
2023/07/01 00:25:31;;;;;;;31.02;17.92;;;;;;;14.80;100.00;95504.88;1046656;28;20023;-77
2023/07/01 00:26:02;;;;;;;28.20;16.35;;;;;;;14.78;100.00;95503.59;1043057;28;20537;-77
2023/07/01 00:26:32;;;;;;;28.05;15.88;;;;;;;14.75;100.00;95502.31;1038866;28;20168;-76
2023/07/01 00:27:03;;;;;;;28.40;16.98;;;;;;;14.71;100.00;95506.63;1040506;28;20025;-77
2023/07/01 00:27:33;;;;;;;30.38;15.50;;;;;;;14.63;100.00;95493.34;1043620;28;20110;-76
2023/07/01 00:28:04;;;;;;;29.50;17.02;;;;;;;14.61;100.00;95504.19;1043020;28;20024;-76
2023/07/01 00:28:34;;;;;;;29.58;16.23;;;;;;;14.56;100.00;95502.44;1043834;28;20029;-77
2023/07/01 00:29:05;;;;;;;29.77;15.55;;;;;;;14.56;100.00;95505.06;1038877;28;20049;-77
2023/07/01 00:29:35;;;;;;;30.60;16.00;;;;;;;14.45;100.00;95487.81;1047176;28;20514;-77
2023/07/01 00:30:07;;;;;;;28.77;15.45;;;;;;;14.46;100.00;95494.69;1038102;28;20025;-76
2023/07/01 00:30:37;;;;;;;28.83;16.33;;;;;;;14.47;100.00;95495.44;1039039;28;20029;-77
2023/07/01 00:31:08;;;;;;;31.00;16.10;;;;;;;14.46;100.00;95494.69;1039811;28;20024;-76
2023/07/01 00:31:38;;;;;;;32.00;17.20;;;;;;;14.49;100.00;95503.88;1039283;28;20051;-76
2023/07/01 00:32:09;;;;;;;26.02;15.63;;;;;;;14.50;100.00;95505.44;1042996;28;20352;-77
2023/07/01 00:32:39;;;;;;;27.08;15.13;;;;;;;14.47;100.00;95506.00;1039260;28;20040;-77
2023/07/01 00:33:10;;;;;;;28.85;16.30;;;;;;;14.45;100.00;95502.88;1035011;28;20030;-77
2023/07/01 00:33:40;;;;;;;30.00;16.42;;;;;;;14.49;100.00;95503.88;1043900;28;20032;-76
2023/07/01 00:34:11;;;;;;;29.90;15.50;;;;;;;14.42;100.00;95498.97;1043562;28;20033;-77
2023/07/01 00:34:41;;;;;;;31.77;16.98;;;;;;;14.47;100.00;95500.72;1047301;28;20037;-77
2023/07/01 00:35:12;;;;;;;29.10;16.00;;;;;;;14.43;100.00;95497.13;1034322;28;20707;-77
2023/07/01 00:35:42;;;;;;;31.45;16.40;;;;;;;14.48;100.00;95502.28;1031665;28;20109;-77
2023/07/01 00:36:13;;;;;;;28.38;16.73;;;;;;;14.47;100.00;95508.66;1034895;28;20033;-77
2023/07/01 00:36:43;;;;;;;29.83;16.13;;;;;;;14.49;100.00;95506.50;1035331;28;20076;-77
2023/07/01 00:37:13;;;;;;;32.28;16.50;;;;;;;14.49;100.00;95503.88;1045474;28;20029;-77
2023/07/01 00:37:44;;;;;;;29.02;15.95;;;;;;;14.45;100.00;95502.88;1052245;28;20031;-77
2023/07/01 00:38:14;;;;;;;27.13;15.88;;;;;;;14.36;100.00;95493.00;1048011;28;20036;-77
2023/07/01 00:38:45;;;;;;;25.58;15.25;;;;;;;14.35;100.00;95499.38;1047646;28;20067;-77
2023/07/01 00:39:15;;;;;;;31.58;16.20;;;;;;;14.36;100.00;95503.56;1035687;28;20025;-77
2023/07/01 00:39:46;;;;;;;26.65;15.77;;;;;;;14.38;100.00;95508.53;1036048;28;20116;-77
2023/07/01 00:40:16;;;;;;;29.05;16.08;;;;;;;14.36;100.00;95500.16;1031178;28;20034;-77
2023/07/01 00:40:47;;;;;;;26.33;15.55;;;;;;;14.39;100.00;95508.25;1043574;28;20052;-77
2023/07/01 00:41:20;;;;;;;26.77;15.52;;;;;;;14.39;100.00;95500.34;1043513;28;20029;-77
2023/07/01 00:41:52;;;;;;;27.40;16.23;;;;;;;14.38;100.00;95504.06;1048700;28;20119;-77
2023/07/01 00:42:23;;;;;;;28.58;16.48;;;;;;;14.41;100.00;95507.19;1040682;28;20055;-78
2023/07/01 00:42:53;;;;;;;30.48;16.23;;;;;;;14.31;100.00;95500.22;1036188;28;20030;-77
2023/07/01 00:43:24;;;;;;;31.83;16.30;;;;;;;14.39;100.00;95515.41;1039971;28;20103;-77
2023/07/01 00:43:54;;;;;;;27.17;16.17;;;;;;;14.38;100.00;95512.00;1041067;28;20395;-77
2023/07/01 00:44:25;;;;;;;28.15;16.48;;;;;;;14.36;100.00;95513.34;1044136;28;20033;-77
2023/07/01 00:44:55;;;;;;;28.10;16.63;;;;;;;14.20;100.00;95486.44;1033187;28;20028;-77
2023/07/01 00:45:25;;;;;;;25.73;15.20;;;;;;;14.28;100.00;95500.81;1031471;28;20030;-77
2023/07/01 00:45:56;;;;;;;26.50;15.55;;;;;;;14.32;100.00;95513.16;1030991;28;20101;-77
2023/07/01 00:46:26;;;;;;;27.27;15.65;;;;;;;14.32;100.00;95515.78;1027986;28;20034;-77
2023/07/01 00:46:57;;;;;;;28.42;16.48;;;;;;;14.33;100.00;95509.41;1028258;28;20026;-77
2023/07/01 00:47:27;;;;;;;28.35;16.15;;;;;;;14.27;100.00;95501.88;1032151;28;20030;-77
2023/07/01 00:47:58;;;;;;;28.40;15.43;;;;;;;14.29;100.00;95505.03;1048423;28;20028;-77
2023/07/01 00:48:28;;;;;;;29.48;16.48;;;;;;;14.34;100.00;95512.84;1048331;28;20013;-77
2023/07/01 00:49:00;;;;;;;30.52;17.08;;;;;;;14.36;100.00;95511.47;1043928;28;20024;-77
2023/07/01 00:49:31;;;;;;;33.15;16.88;;;;;;;14.27;100.00;95496.59;1036552;28;20075;-77
2023/07/01 00:50:01;;;;;;;28.00;16.02;;;;;;;14.34;100.00;95510.97;1048380;28;20016;-77
2023/07/01 00:50:31;;;;;;;29.13;16.02;;;;;;;14.29;100.00;95503.16;1048584;28;20429;-77
2023/07/01 00:51:02;;;;;;;30.42;16.15;;;;;;;14.29;100.00;95500.53;1043611;28;20064;-77
2023/07/01 00:51:32;;;;;;;26.77;15.55;;;;;;;14.37;100.00;95515.69;1043835;28;20048;-77
2023/07/01 00:52:03;;;;;;;34.30;16.40;;;;;;;14.31;100.00;95508.13;1039489;28;20064;-77
2023/07/01 00:52:34;;;;;;;26.95;16.23;;;;;;;14.34;100.00;95512.84;1029428;28;20084;-77
2023/07/01 00:53:04;;;;;;;28.48;16.77;;;;;;;14.33;100.00;95506.78;1031988;28;20022;-77
2023/07/01 00:53:35;;;;;;;26.92;15.48;;;;;;;14.32;100.00;95512.38;1040659;28;20033;-77
2023/07/01 00:54:05;;;;;;;29.17;15.60;;;;;;;14.21;100.00;95488.00;1046171;28;20028;-77
2023/07/01 00:54:36;;;;;;;26.05;15.70;;;;;;;14.33;100.00;95512.06;1039753;28;20056;-77
2023/07/01 00:55:06;;;;;;;26.88;15.63;;;;;;;14.35;100.00;95509.13;1039686;28;20033;-77
2023/07/01 00:55:37;;;;;;;28.88;15.85;;;;;;;14.33;100.00;95508.66;1036037;28;20025;-77
2023/07/01 00:56:07;;;;;;;31.30;14.68;;;;;;;14.27;100.00;95496.59;1040324;28;20529;-77
2023/07/01 00:56:38;;;;;;;27.25;15.68;;;;;;;14.33;100.00;95506.78;1048346;28;20053;-77
2023/07/01 00:57:08;;;;;;;25.73;15.82;;;;;;;14.29;100.00;95503.16;1044452;28;20588;-78
2023/07/01 00:57:39;;;;;;;29.92;15.52;;;;;;;14.26;100.00;95501.09;1035986;28;20034;-77
2023/07/01 00:58:09;;;;;;;28.38;16.30;;;;;;;14.32;100.00;95509.72;1035597;28;20049;-77
2023/07/01 00:58:40;;;;;;;31.42;15.98;;;;;;;14.34;100.00;95508.34;1033698;28;20034;-77
2023/07/01 00:59:10;;;;;;;32.42;16.25;;;;;;;14.25;100.00;95502.19;1036477;28;20656;-77
2023/07/01 00:59:41;;;;;;;26.13;14.45;;;;;;;14.32;100.00;95515.00;1040134;28;20091;-77
2023/07/01 01:00:12;;;;;;;26.90;15.55;;;;;;;14.31;100.00;95508.13;1039851;28;20021;-77
2023/07/01 01:00:43;;;;;;;32.42;15.68;;;;;;;14.24;100.00;95495.31;1040376;28;20388;-77
2023/07/01 01:01:15;;;;;;;25.88;15.05;;;;;;;14.33;100.00;95509.41;1039157;28;20140;-77
2023/07/01 01:01:47;;;;;;;29.23;15.00;;;;;;;14.29;100.00;95503.16;1035912;28;20057;-77
2023/07/01 01:02:23;;;;;;;27.65;14.73;;;;;;;14.32;100.00;95505.22;1044169;28;20025;-78
2023/07/01 01:02:58;;;;;;;27.38;15.38;;;;;;;14.33;100.00;95506.78;1039463;28;20029;-77
2023/07/01 01:03:39;;;;;;;29.52;15.77;;;;;;;14.37;100.00;95502.47;1036233;28;20639;-77
2023/07/01 01:05:01;;;;;;;27.25;15.05;;;;;;;14.38;100.00;95503.25;1040483;28;20033;-77
2023/07/01 01:05:36;;;;;;;24.83;13.85;;;;;;;14.37;100.00;95513.03;1046059;28;20060;-77
2023/07/01 01:06:19;;;;;;;26.45;14.52;;;;;;;14.33;100.00;95504.16;1047894;28;20016;-77
2023/07/01 01:06:56;;;;;;;24.48;13.65;;;;;;;14.27;100.00;95497.38;1044830;28;20051;-77
2023/07/01 01:07:42;;;;;;;26.05;14.18;;;;;;;14.34;100.00;95508.34;1041553;28;20856;-77
2023/07/01 01:08:17;;;;;;;31.35;14.27;;;;;;;14.29;100.00;95500.53;1040387;28;20479;-77
2023/07/01 01:08:53;;;;;;;25.58;15.35;;;;;;;14.33;100.00;95509.41;1036317;28;20117;-77
2023/07/01 01:09:36;;;;;;;28.00;15.40;;;;;;;14.30;100.00;95491.53;1041568;28;20009;-77
2023/07/01 01:10:09;;;;;;;23.05;14.30;;;;;;;14.23;100.00;95495.63;1032655;28;20639;-77
2023/07/01 01:10:39;;;;;;;27.67;14.52;;;;;;;14.28;100.00;95501.59;1040455;28;20819;-77
2023/07/01 01:11:10;;;;;;;26.27;15.30;;;;;;;14.27;100.00;95501.88;1043996;28;20092;-77
2023/07/01 01:11:43;;;;;;;24.38;14.52;;;;;;;14.30;100.00;95507.38;1032425;28;20015;-77
2023/07/01 01:12:13;;;;;;;27.45;15.02;;;;;;;14.27;100.00;95497.38;1028827;28;20015;-79
2023/07/01 01:12:44;;;;;;;21.35;13.50;;;;;;;14.25;100.00;95499.56;1037627;28;20049;-78
2023/07/01 01:13:14;;;;;;;23.50;13.05;;;;;;;14.27;100.00;95507.94;1040979;28;20017;-77
2023/07/01 01:13:45;;;;;;;27.40;14.82;;;;;;;14.26;100.00;95509.03;1028174;28;20011;-78
2023/07/01 01:14:15;;;;;;;23.00;14.40;;;;;;;14.28;100.00;95503.44;1026752;28;20030;-77
2023/07/01 01:14:46;;;;;;;24.67;13.68;;;;;;;14.21;100.00;95489.84;1034690;28;20232;-77
2023/07/01 01:15:16;;;;;;;21.35;13.27;;;;;;;14.28;100.00;95509.50;1038982;28;20026;-78
2023/07/01 01:15:47;;;;;;;23.05;14.05;;;;;;;14.16;100.00;95490.72;1041956;28;20127;-78
2023/07/01 01:16:17;;;;;;;23.70;14.45;;;;;;;14.10;100.00;95486.63;1039281;28;20088;-77
2023/07/01 01:16:49;;;;;;;22.80;13.02;;;;;;;14.14;100.00;95498.16;1031651;28;20018;-76
2023/07/01 01:17:19;;;;;;;23.02;13.20;;;;;;;14.11;100.00;95490.81;1043884;28;20025;-77
2023/07/01 01:17:51;;;;;;;24.63;14.00;;;;;;;14.14;100.00;95495.50;1047668;28;20133;-77
2023/07/01 01:18:22;;;;;;;23.20;14.45;;;;;;;14.19;100.00;95506.00;1032306;28;20427;-77
2023/07/01 01:18:53;;;;;;;24.55;14.18;;;;;;;14.17;100.00;95500.22;1035596;28;20040;-77
2023/07/01 01:19:39;;;;;;;23.25;13.57;;;;;;;14.15;100.00;95499.69;1031962;28;20022;-76
2023/07/01 01:20:16;;;;;;;21.77;13.30;;;;;;;14.17;100.00;95502.06;1031981;28;20023;-77
2023/07/01 01:20:46;;;;;;;23.52;13.90;;;;;;;14.15;100.00;95497.06;1040081;28;20051;-77
2023/07/01 01:21:17;;;;;;;24.63;13.00;;;;;;;14.20;100.00;95512.81;1038075;28;20134;-77
2023/07/01 01:21:53;;;;;;;26.45;13.75;;;;;;;14.18;100.00;95504.41;1031984;28;20022;-77
2023/07/01 01:22:28;;;;;;;23.23;13.13;;;;;;;14.12;100.00;95495.03;1040255;28;20033;-77
2023/07/01 01:23:03;;;;;;;23.52;14.05;;;;;;;14.21;100.00;95503.81;1040260;28;20069;-78
2023/07/01 01:23:38;;;;;;;22.42;12.93;;;;;;;14.16;100.00;95501.28;1042251;28;20105;-77
2023/07/01 01:24:09;;;;;;;27.38;14.25;;;;;;;14.25;100.00;95510.09;1044030;28;20032;-76
2023/07/01 01:24:41;;;;;;;23.75;13.02;;;;;;;14.17;100.00;95500.22;1040132;28;20032;-77
2023/07/01 01:25:20;;;;;;;21.65;13.10;;;;;;;14.24;100.00;95505.09;1046530;28;20028;-77
2023/07/01 01:26:00;;;;;;;24.20;13.82;;;;;;;14.26;100.00;95506.38;1040316;28;20050;-78
2023/07/01 01:26:33;;;;;;;28.38;14.70;;;;;;;14.23;100.00;95509.59;1042596;28;20540;-77
2023/07/01 01:27:04;;;;;;;20.95;13.02;;;;;;;14.20;100.00;95504.91;1032258;28;20153;-77
2023/07/01 01:27:39;;;;;;;21.92;13.10;;;;;;;14.27;100.00;95505.31;1039970;28;20057;-77
2023/07/01 01:28:09;;;;;;;22.88;14.23;;;;;;;14.24;100.00;95507.75;1039985;28;20820;-77
2023/07/01 01:28:40;;;;;;;27.63;14.02;;;;;;;14.28;100.00;95514.78;1039933;28;20071;-77
2023/07/01 01:29:10;;;;;;;24.45;14.65;;;;;;;14.20;100.00;95501.50;1044613;28;20075;-77
2023/07/01 01:29:41;;;;;;;22.02;12.93;;;;;;;14.23;100.00;95506.97;1039127;28;20025;-78
2023/07/01 01:30:11;;;;;;;22.67;13.55;;;;;;;14.29;100.00;95510.31;1036242;28;20459;-77
2023/07/01 01:30:42;;;;;;;24.45;13.63;;;;;;;14.20;100.00;95498.84;1040598;28;20026;-77
2023/07/01 01:31:12;;;;;;;23.60;14.55;;;;;;;14.22;100.00;95505.41;1040379;28;20021;-77
2023/07/01 01:31:43;;;;;;;20.58;13.05;;;;;;;14.32;100.00;95512.38;1048384;28;20016;-77
2023/07/01 01:32:14;;;;;;;26.25;13.50;;;;;;;14.27;100.00;95502.66;1048736;28;20500;-77
2023/07/01 01:32:46;;;;;;;24.27;13.18;;;;;;;14.29;100.00;95511.09;1044398;28;20044;-77
2023/07/01 01:33:17;;;;;;;21.58;13.15;;;;;;;14.28;100.00;95506.84;1040457;28;20018;-77
2023/07/01 01:33:48;;;;;;;21.45;13.05;;;;;;;14.27;100.00;95507.94;1037961;28;20021;-77
2023/07/01 01:34:19;;;;;;;22.65;12.65;;;;;;;14.28;100.00;95509.50;1049082;28;20051;-77
2023/07/01 01:34:50;;;;;;;21.60;13.13;;;;;;;14.29;100.00;95511.09;1048638;28;20021;-77
2023/07/01 01:35:21;;;;;;;26.20;13.40;;;;;;;14.36;100.00;95516.75;1044828;28;20025;-78
2023/07/01 01:35:51;;;;;;;20.77;12.45;;;;;;;14.31;100.00;95508.91;1048357;28;20024;-78
2023/07/01 01:36:33;;;;;;;20.55;13.13;;;;;;;14.35;100.00;95515.19;1032584;28;20034;-77
2023/07/01 01:37:06;;;;;;;26.65;13.15;;;;;;;14.34;100.00;95513.63;1039333;28;20037;-78
2023/07/01 01:37:41;;;;;;;23.23;13.38;;;;;;;14.34;100.00;95518.13;1044695;28;20095;-78
2023/07/01 01:38:20;;;;;;;20.80;12.70;;;;;;;14.27;100.00;95510.59;1044654;28;20017;-78
2023/07/01 01:38:51;;;;;;;24.35;13.07;;;;;;;14.19;100.00;95494.66;1041190;28;20261;-77
2023/07/01 01:39:24;;;;;;;25.80;12.68;;;;;;;14.29;100.00;95510.31;1040795;28;20026;-77
2023/07/01 01:39:56;;;;;;;22.80;12.35;;;;;;;14.24;100.00;95508.53;1044547;28;20017;-77
2023/07/01 01:40:29;;;;;;;21.83;12.05;;;;;;;14.30;100.00;95517.16;1035988;28;20088;-78
2023/07/01 01:41:06;;;;;;;24.40;12.60;;;;;;;14.33;100.00;95516.56;1036574;28;20034;-78
2023/07/01 01:41:50;;;;;;;22.05;13.25;;;;;;;14.22;100.00;95497.50;1043367;28;20092;-78
2023/07/01 01:42:23;;;;;;;26.10;13.10;;;;;;;14.28;100.00;95504.22;1045849;28;20025;-78
2023/07/01 01:42:57;;;;;;;21.27;12.98;;;;;;;14.31;100.00;95508.91;1044622;28;20116;-78
2023/07/01 01:43:40;;;;;;;22.55;12.48;;;;;;;14.33;100.00;95514.69;1048668;28;20125;-78
2023/07/01 01:44:13;;;;;;;22.00;12.68;;;;;;;14.32;100.00;95509.72;1048884;28;20027;-77
2023/07/01 01:44:47;;;;;;;19.67;12.85;;;;;;;14.27;100.00;95510.59;1040567;28;20498;-77
2023/07/01 01:45:19;;;;;;;21.42;12.23;;;;;;;14.28;100.00;95506.84;1045220;28;20612;-77
2023/07/01 01:45:49;;;;;;;19.63;11.95;;;;;;;14.22;100.00;95494.84;1040636;28;20017;-78
2023/07/01 01:46:19;;;;;;;17.90;12.20;;;;;;;14.26;100.00;95511.66;1040827;28;20013;-78
2023/07/01 01:46:50;;;;;;;18.50;11.93;;;;;;;14.18;100.00;95493.84;1036908;28;20018;-78
2023/07/01 01:47:21;;;;;;;23.00;12.65;;;;;;;14.21;100.00;95493.28;1044620;28;20032;-77
2023/07/01 01:47:52;;;;;;;22.80;13.15;;;;;;;14.19;100.00;95499.94;1040904;28;20026;-77
2023/07/01 01:48:22;;;;;;;19.83;12.45;;;;;;;14.20;100.00;95501.50;1032651;28;20037;-77
2023/07/01 01:48:55;;;;;;;21.48;12.00;;;;;;;14.22;100.00;95505.41;1047993;28;20021;-77
2023/07/01 01:49:25;;;;;;;22.60;12.48;;;;;;;14.22;100.00;95502.78;1040239;28;20059;-77
2023/07/01 01:49:58;;;;;;;22.08;12.73;;;;;;;14.13;100.00;95491.31;1032414;28;20015;-77
2023/07/01 01:50:28;;;;;;;19.90;12.55;;;;;;;14.23;100.00;95506.97;1040251;28;20021;-77
2023/07/01 01:50:59;;;;;;;22.67;12.55;;;;;;;14.17;100.00;95497.56;1044532;28;20540;-76
2023/07/01 01:51:30;;;;;;;21.70;12.80;;;;;;;14.23;100.00;95506.97;1040395;28;20056;-78
2023/07/01 01:52:01;;;;;;;22.80;12.75;;;;;;;14.25;100.00;95511.94;1036888;28;20013;-77
2023/07/01 01:52:34;;;;;;;22.02;12.75;;;;;;;14.25;100.00;95504.84;1038583;28;20108;-77
2023/07/01 01:53:04;;;;;;;23.20;13.00;;;;;;;14.22;100.00;95505.41;1036314;28;20022;-78
2023/07/01 01:53:36;;;;;;;19.40;12.35;;;;;;;14.19;100.00;95502.56;1030540;28;20042;-78
2023/07/01 01:54:07;;;;;;;22.15;13.88;;;;;;;14.10;100.00;95490.03;1030778;28;20018;-77
2023/07/01 01:54:37;;;;;;;20.77;13.23;;;;;;;14.13;100.00;95499.22;1044393;28;20036;-78
2023/07/01 01:55:09;;;;;;;22.15;12.07;;;;;;;14.19;100.00;95510.50;1040608;28;20028;-78
2023/07/01 01:55:39;;;;;;;24.38;13.32;;;;;;;14.23;100.00;95506.97;1044221;28;20025;-77
2023/07/01 01:56:10;;;;;;;25.65;13.52;;;;;;;14.17;100.00;95497.56;1040475;28;20026;-78
2023/07/01 01:56:40;;;;;;;24.17;14.02;;;;;;;14.21;100.00;95509.09;1040554;28;20530;-78
2023/07/01 01:57:11;;;;;;;25.42;13.68;;;;;;;14.24;100.00;95508.53;1037166;28;20026;-77
2023/07/01 01:57:41;;;;;;;22.73;13.38;;;;;;;14.24;100.00;95502.47;1039544;28;20104;-78
2023/07/01 01:58:12;;;;;;;24.15;13.95;;;;;;;14.24;100.00;95511.16;1037147;28;20026;-78
2023/07/01 01:58:42;;;;;;;22.70;13.73;;;;;;;14.19;100.00;95495.44;1036517;28;20064;-78
2023/07/01 01:59:13;;;;;;;23.33;12.68;;;;;;;14.22;100.00;95505.41;1034987;28;20037;-77
2023/07/01 01:59:43;;;;;;;22.88;13.32;;;;;;;14.28;100.00;95504.22;1035934;28;20072;-78
2023/07/01 02:00:14;;;;;;;24.08;13.70;;;;;;;14.22;100.00;95500.13;1035370;28;20037;-78
2023/07/01 02:00:47;;;;;;;22.77;13.70;;;;;;;14.27;100.00;95505.31;1033552;28;20034;-77
2023/07/01 02:01:18;;;;;;;25.40;14.30;;;;;;;14.24;100.00;95508.53;1047586;28;20112;-78
2023/07/01 02:01:48;;;;;;;22.40;13.02;;;;;;;14.31;100.00;95508.13;1039201;28;20585;-77
2023/07/01 02:02:19;;;;;;;22.50;12.70;;;;;;;14.30;100.00;95509.22;1039179;28;20037;-77
2023/07/01 02:02:49;;;;;;;28.73;13.77;;;;;;;14.25;100.00;95502.19;1027230;28;20033;-77
2023/07/01 02:03:19;;;;;;;23.55;13.70;;;;;;;14.29;100.00;95505.03;1031077;28;20034;-77
2023/07/01 02:03:50;;;;;;;26.40;14.68;;;;;;;14.28;100.00;95506.09;1035049;28;20721;-77
2023/07/01 02:04:20;;;;;;;24.38;13.95;;;;;;;14.26;100.00;95506.38;1034964;28;20041;-77
2023/07/01 02:04:51;;;;;;;25.65;14.50;;;;;;;14.23;100.00;95504.31;1039336;28;20101;-77
2023/07/01 02:05:21;;;;;;;27.33;13.88;;;;;;;14.30;100.00;95506.59;1039455;28;20029;-78
2023/07/01 02:05:52;;;;;;;21.48;13.18;;;;;;;14.27;100.00;95507.94;1035765;28;20026;-77
2023/07/01 02:06:22;;;;;;;24.50;13.27;;;;;;;14.25;100.00;95506.66;1032438;28;20023;-77
2023/07/01 02:06:53;;;;;;;25.65;13.70;;;;;;;14.23;100.00;95506.19;1036316;28;20022;-78
2023/07/01 02:07:23;;;;;;;19.73;12.60;;;;;;;14.24;100.00;95513.81;1031892;28;20019;-78
2023/07/01 02:07:54;;;;;;;24.15;14.10;;;;;;;14.20;100.00;95507.53;1029461;28;21006;-78
2023/07/01 02:08:25;;;;;;;23.98;13.52;;;;;;;14.21;100.00;95503.03;1036000;28;20021;-78
2023/07/01 02:08:55;;;;;;;23.65;12.85;;;;;;;14.22;100.00;95518.59;1036055;28;20047;-78
2023/07/01 02:09:28;;;;;;;22.85;13.20;;;;;;;14.23;100.00;95514.88;1041086;28;20685;-78
2023/07/01 02:09:59;;;;;;;19.40;11.77;;;;;;;14.23;100.00;95517.53;1040582;28;20079;-78
2023/07/01 02:10:30;;;;;;;23.30;13.77;;;;;;;14.22;100.00;95515.97;1044454;28;20534;-78
2023/07/01 02:11:01;;;;;;;22.13;12.93;;;;;;;14.14;100.00;95503.41;1047268;28;20044;-78
2023/07/01 02:11:32;;;;;;;25.75;14.00;;;;;;;14.14;100.00;95508.69;1043357;28;20045;-78
2023/07/01 02:12:04;;;;;;;23.27;14.10;;;;;;;14.15;100.00;95520.81;1040452;28;20092;-78
2023/07/01 02:12:35;;;;;;;26.30;13.82;;;;;;;14.11;100.00;95510.06;1035763;28;20033;-78
2023/07/01 02:13:05;;;;;;;25.00;13.82;;;;;;;14.03;100.00;95491.50;1034553;28;20045;-78
2023/07/01 02:13:36;;;;;;;24.13;13.98;;;;;;;14.14;100.00;95514.75;1036277;28;20045;-78
2023/07/01 02:14:06;;;;;;;23.60;13.23;;;;;;;14.16;100.00;95522.41;1040073;28;20037;-78
2023/07/01 02:14:36;;;;;;;28.95;14.65;;;;;;;14.14;100.00;95513.97;1044171;28;20034;-77
2023/07/01 02:15:07;;;;;;;22.63;12.90;;;;;;;14.12;100.00;95513.50;1040420;28;20080;-78
2023/07/01 02:15:38;;;;;;;22.60;13.27;;;;;;;14.18;100.00;95520.22;1036247;28;20026;-77
2023/07/01 02:16:08;;;;;;;27.58;13.70;;;;;;;14.20;100.00;95518.09;1039823;28;20033;-78
2023/07/01 02:16:39;;;;;;;26.27;14.20;;;;;;;14.17;100.00;95513.41;1048883;28;20174;-77
2023/07/01 02:17:09;;;;;;;24.40;13.75;;;;;;;14.20;100.00;95512.03;1048108;28;20036;-78
2023/07/01 02:17:39;;;;;;;31.15;15.55;;;;;;;14.20;100.00;95512.03;1036088;28;20046;-78
2023/07/01 02:18:10;;;;;;;23.88;13.13;;;;;;;14.26;100.00;95519.59;1039928;28;20029;-77
2023/07/01 02:18:41;;;;;;;22.83;13.50;;;;;;;14.27;100.00;95518.50;1048456;28;20017;-77
2023/07/01 02:19:11;;;;;;;26.13;13.73;;;;;;;14.23;100.00;95508.81;1048943;28;20144;-78
2023/07/01 02:19:42;;;;;;;29.88;14.93;;;;;;;14.26;100.00;95516.16;1039722;28;20022;-78
2023/07/01 02:20:12;;;;;;;25.20;13.88;;;;;;;14.16;100.00;95501.28;1035839;28;20029;-78
2023/07/01 02:20:43;;;;;;;25.95;14.15;;;;;;;14.17;100.00;95502.84;1044503;28;20029;-78
2023/07/01 02:21:13;;;;;;;28.70;14.70;;;;;;;14.19;100.00;95506.00;1043697;28;20021;-78
2023/07/01 02:21:43;;;;;;;25.83;13.57;;;;;;;14.17;100.00;95502.84;1043852;28;20040;-77
2023/07/01 02:22:14;;;;;;;26.98;13.80;;;;;;;14.24;100.00;95513.81;1044164;28;20019;-78
2023/07/01 02:22:44;;;;;;;25.58;15.02;;;;;;;14.19;100.00;95502.56;1043152;28;20028;-78
2023/07/01 02:23:15;;;;;;;23.98;12.50;;;;;;;14.23;100.00;95506.97;1048326;28;20051;-78
2023/07/01 02:23:45;;;;;;;23.95;13.27;;;;;;;14.24;100.00;95511.16;1047227;28;20494;-77